skip to main content

Salvage Dealers List

Click on any column heading to sort by that column or use the search field below to enter search terms.

Salvage Dealer List

Click on a Business Name for more detailed information about that dealer.

Business NamePhonePhysical AddressCityZipDealerIDLicense NumberExpires
ADVANCE AUTO GROUP(281) 741-39871938 HAVNER LNHOUSTON77093559491012559492/18/2017 0:00
ADVANCE AUTO GROUP(832) 655-58711938 HAVNER LNHOUSTON77093559491012559492/18/2017 0:00
ADVANCE AUTO SALES(832) 868-18306805 AVENUE WHOUSTON770115062710125062710/17/2017 0:00
ADVANCE AUTO SALES(832) 868-18306805 AVENUE WHOUSTON770115062710165062710/17/2017 0:00
ADVANCED AUTO SALES(254) 965-73414834 S US HWY 281STEPHENVILLE76401553827265538210/30/2017 0:00
ADVANCED CAR CONNECTION(936) 223-92301271 E. FM 1988GOODRICH77335480161876480169/19/2017 0:00
ADVANCED ENTERPRISES INC(832) 660-10003109 JEANETTA STHOUSTON77063571741012571747/27/2017 0:00
ADVANCED POWER AUTO SALES(936) 371-76757723 S. US HIGHWAY 59NACOGDOCHES75964566021742566025/12/2017 0:00
ADVANCED POWER AUTO SALES(936) 371-76757723 S. US HIGHWAY 59NACOGDOCHES75964566021746566025/12/2017 0:00
ADVANTAGE AUTO SALES(817) 536-00403309 MANSFIELD HWYFORT WORTH7611968322020068310/30/2017 0:00
ADVANTAGE AUTO SALES(817) 536-00403309 MANSFIELD HWYFORT WORTH761196832206006834/22/2017 0:00
ADVANTAGE AUTO SALES OF WICHITA FALLS(940) 689-00012452 ARENA RD.WITCHITA FALLS763104839724354839711/21/2017 0:00
ADVANTAGE AUTOMOBILE BODY PARTS INC(817) 808-75408001 JACKSBORO HWYFT WORTH76135705722060705710/31/2017 0:00
ADVANTAGE HOUSTON MOTORS LLC(281) 250-508612822 MCNAIR STHOUSTON77015416631012416633/4/2017 0:00
ADVANTAGE HOUSTON MOTORS LLC(281) 250-508612822 MCNAIR STHOUSTON77015416631016416633/4/2017 0:00
ADVANTAGE SALVAGE AND AUTO PARTS LLC(361) 289-50005330 AGNES STCORPUS CHRISTI78405331731782331739/17/2017 0:00
ADVENTURE AUTO(936) 634-17001709 WEST FRANK AVELUFKIN759044111332411138/22/2017 0:00
ADVENTURE AUTO(936) 634-17001709 WEST FRANK AVELUFKIN759044111336411138/22/2017 0:00
ADWAJ IMPORT EXPORT(832) 620-633811845 ORMANDY STHOUSTON77035418601012418606/6/2017 0:00
ADWAJ IMPORT EXPORT(832) 620-633811845 ORMANDY STHOUSTON77035418601016418606/6/2017 0:00
AEROMARINE ENTERPRISE(832) 279-142115827 BELLAIRE BOULEVARDHOUSTON77083358351016358352/1/2017 0:00
AEROPLACE SERVICES INCORPORATED(469) 964-187515 FIELDER RDDENISON7502052647912526479/4/2017 0:00
AFFORDABLE AUTO CENTER(713) 396-37948051 S. KIRKWOOD RD.HOUSTON770725980810125980812/28/2017 0:00
AFFORDABLE AUTO CENTER(713) 396-37948051 S. KIRKWOOD RD.HOUSTON770725980810165980812/28/2017 0:00
AFFORDABLE AUTO REPAIR(940) 458-198711721 MARION RDSANGER7626647929616479299/19/2017 0:00
AFFORDABLE AUTO REPAIRS & SALES(832) 868-48742845 LINCOLN DRIVEHOUSTON77038588051012588058/15/2017 0:00
AFFORDABLE CAR SALE(214) 893-66585206 HIGHWAY 380PRINCETON7540758920436589205/10/2017 0:00
AFFORDABLE CARS AND SERVICES(832) 630-257015827 BELLAIRE BLVDHOUSTON77083534221012534221/17/2018 0:00
AFFORDABLE SALES(281) 987-03005204 NORTHINGTON STHOUSTON77039308371016308377/1/2017 0:00
AFFORDABLE USED AUTO PARTS(281) 593-270019236 TX 105CLEVELAND77328598751702598751/9/2018 0:00
AFFORDABLE USED AUTO PARTS(281) 593-270019236 TX 105CLEVELAND77328598751706598751/9/2018 0:00
AFGHAN MOTORS EXPORTS COMPANY(832) 531-4627225 E TIDWELL RDHOUSTON77022599961012599961/12/2018 0:00
AFGHAN MOTORS EXPORTS COMPANY(832) 531-4627225 E TIDWELL RDHOUSTON77022599961014599961/12/2018 0:00
AFOSO GROUP ENTERPRISE(713) 505-33008700 COMMERCE PARK DR, STE 108AHOUSTON77036586421016586426/23/2017 0:00
AFRICAN GIFT STORE(757) 342-892710861 SHADY LNHOUSTON77093443101012443108/9/2017 0:00
AG MOTORS(713) 884-087215734 BOSS GASTON, STE BSUGAR LAND7749848044795480449/20/2017 0:00
AG MOTORS(713) 884-087215734 BOSS GASTON, STE BSUGAR LAND7749848044796480449/20/2017 0:00
AG MOTORS(956) 237-0116410 E SAUNDERS STLAREDO78041489392406489392/15/2017 0:00
AGAPE LOVE(713) 683-10402008 WIRT RD, STE DHOUSTON77055354811012354813/29/2017 0:00
AGAT EXPORT TECHNICAL(469) 554-188610894 STINSON DR.DALLAS75217596415725964110/13/2017 0:00
AGBIMS MOTORS(832) 310-493213710 FLORENCE RD # 21SUGAR LAND7749859446792594469/9/2017 0:00
AGI AGI GLOBAL AND GEOPOLITICAL(713) 252-36126124 JESSAMINE STHOUSTON77081576121016576129/30/2017 0:00
AGOSTUS MOTOR GROUP LLC(832) 230-44547110 ROMONA BLVD STE 2HOUSTON77086552751012552751/26/2017 0:00
AGOSTUS MOTOR GROUP LLC(832) 230-44547110 ROMONA BLVD STE 2HOUSTON77086552751016552751/26/2017 0:00
AGREDA AUTO SALES(817) 521-49671938 W MAIN STGRAND PRAIRIE7505058548572585483/8/2017 0:00
AGREDA AUTO SALES(817) 521-49671938 W MAIN STGRAND PRAIRIE7505058548576585483/8/2017 0:00
AGUILAR AUTO SALE(409) 457-4671800 E. TIDWELL RD.HOUSTON770225076510125076511/9/2017 0:00
AGUILAR AUTO SALE(409) 457-4671800 E. TIDWELL RD.HOUSTON770225076510165076511/9/2017 0:00
AGUILAR AUTO SALES(214) 377-98601207 MCKENZIE, STE #3DALLAS75223598765725987612/15/2017 0:00
AGUILAR AUTO SALES(214) 377-98601207 MCKENZIE, STE #3DALLAS75223598765765987612/15/2017 0:00

Copyright © 2017 Texas Department of Motor Vehicles. All rights reserved. - 4000 Jackson Ave, Austin, TX 78731